createdAt,value
2022-07-25T00:00:47.355Z,6.97
2022-07-25T00:03:18.565Z,7.32
2022-07-25T00:05:47.500Z,6.70
2022-07-25T00:08:15.935Z,7.35
2022-07-25T00:10:44.368Z,6.53
2022-07-25T00:13:12.753Z,7.00
2022-07-25T00:15:41.191Z,6.53
2022-07-25T00:18:09.641Z,6.65
2022-07-25T00:20:39.426Z,6.80
2022-07-25T00:23:07.850Z,7.22
2022-07-25T00:25:36.270Z,6.72
2022-07-25T00:28:04.737Z,6.55
2022-07-25T00:30:33.116Z,6.88
2022-07-25T00:33:01.494Z,7.22
2022-07-25T00:35:31.966Z,7.40
2022-07-25T00:38:01.808Z,7.18
2022-07-25T00:40:30.260Z,6.65
2022-07-25T00:42:58.725Z,6.90
2022-07-25T00:45:27.116Z,6.80
2022-07-25T00:47:55.575Z,6.93
2022-07-25T00:50:24.288Z,7.53
2022-07-25T00:52:52.759Z,7.47
2022-07-25T00:55:23.495Z,7.45
2022-07-25T00:57:52.279Z,6.97
2022-07-25T01:00:20.731Z,7.03
2022-07-25T01:02:50.892Z,6.70
2022-07-25T01:05:19.432Z,7.28
2022-07-25T01:07:48.485Z,7.13
2022-07-25T01:10:16.942Z,6.97
2022-07-25T01:12:53.549Z,7.40
2022-07-25T01:15:23.152Z,6.75
2022-07-25T01:17:51.638Z,6.40
2022-07-25T01:20:21.932Z,7.40
2022-07-25T01:22:50.627Z,6.75
2022-07-25T01:25:19.475Z,6.63
2022-07-25T01:27:52.931Z,7.13
2022-07-25T01:30:24.112Z,7.22
2022-07-25T01:32:52.651Z,7.32
2022-07-25T01:35:22.751Z,7.38
2022-07-25T01:37:51.252Z,7.63
2022-07-25T01:40:19.681Z,7.18
2022-07-25T01:42:48.138Z,6.47
2022-07-25T01:45:16.563Z,7.10
2022-07-25T01:47:45.015Z,7.47
2022-07-25T01:50:13.425Z,7.25
2022-07-25T01:52:44.209Z,6.85
2022-07-25T01:55:12.620Z,7.47
2022-07-25T01:57:41.465Z,6.97
2022-07-25T02:00:18.130Z,7.15
2022-07-25T02:02:47.003Z,7.45
2022-07-25T02:05:16.172Z,7.20
2022-07-25T02:07:45.986Z,7.35
2022-07-25T02:10:14.380Z,7.30
2022-07-25T02:12:42.809Z,7.10
2022-07-25T02:15:11.590Z,7.15
2022-07-25T02:17:40.049Z,7.82
2022-07-25T02:20:08.846Z,7.05
2022-07-25T02:22:37.263Z,7.03
2022-07-25T02:25:07.641Z,7.22
2022-07-25T02:27:36.079Z,7.80
2022-07-25T02:30:04.684Z,7.47
2022-07-25T02:32:33.111Z,7.43
2022-07-25T02:35:01.543Z,7.75
2022-07-25T02:37:30.005Z,7.60
2022-07-25T02:39:58.424Z,7.90
2022-07-25T02:42:28.219Z,7.25
2022-07-25T02:44:56.605Z,7.30
2022-07-25T02:47:25.047Z,6.55
2022-07-25T02:49:53.781Z,7.28
2022-07-25T02:52:22.209Z,7.13
2022-07-25T02:54:51.011Z,7.05
2022-07-25T02:57:19.565Z,7.32
2022-07-25T02:59:49.355Z,7.05
2022-07-25T03:02:17.788Z,7.18
2022-07-25T03:04:46.227Z,8.32
2022-07-25T03:07:14.619Z,6.82
2022-07-25T03:09:43.031Z,6.95
2022-07-25T03:12:11.543Z,7.43
2022-07-25T03:14:39.945Z,7.13
2022-07-25T03:17:09.768Z,7.50
2022-07-25T03:19:38.217Z,7.47
2022-07-25T03:22:06.676Z,6.65
2022-07-25T03:24:35.081Z,7.35
2022-07-25T03:27:03.794Z,7.05
2022-07-25T03:29:32.190Z,7.50
2022-07-25T03:32:00.728Z,7.18
2022-07-25T03:34:30.597Z,7.47
2022-07-25T03:37:00.338Z,7.10
2022-07-25T03:39:28.769Z,6.85
2022-07-25T03:41:57.278Z,6.72
2022-07-25T03:44:26.062Z,6.88
2022-07-25T03:46:54.535Z,7.25
2022-07-25T03:49:22.981Z,7.30
2022-07-25T03:51:52.764Z,7.50
2022-07-25T03:54:21.205Z,7.53
2022-07-25T03:56:50.788Z,7.13
2022-07-25T03:59:20.530Z,7.20
2022-07-25T04:01:50.071Z,7.57
2022-07-25T04:04:19.504Z,7.20
2022-07-25T04:06:48.294Z,7.20
2022-07-25T04:09:18.074Z,7.03
2022-07-25T04:11:46.615Z,7.32
2022-07-25T04:14:15.021Z,7.55
2022-07-25T04:16:43.715Z,7.10
2022-07-25T04:19:12.360Z,6.28
2022-07-25T04:21:40.800Z,7.80
2022-07-25T04:24:09.704Z,6.80
2022-07-25T04:26:39.620Z,7.53
2022-07-25T04:29:08.093Z,6.60
2022-07-25T04:31:36.575Z,7.00
2022-07-25T04:34:05.355Z,7.05
2022-07-25T04:36:33.933Z,6.80
2022-07-25T04:39:02.351Z,7.28
2022-07-25T04:41:30.764Z,6.75
2022-07-25T04:44:00.667Z,7.07
2022-07-25T04:46:29.056Z,7.03
2022-07-25T04:48:57.546Z,7.38
2022-07-25T04:51:26.028Z,7.00
2022-07-25T04:53:54.453Z,7.35
2022-07-25T04:56:22.845Z,6.47
2022-07-25T04:58:51.336Z,6.90
2022-07-25T05:01:21.178Z,6.57
2022-07-25T05:03:50.388Z,7.13
2022-07-25T05:06:19.595Z,7.10
2022-07-25T05:08:48.367Z,6.88
2022-07-25T05:11:16.778Z,7.20
2022-07-25T05:13:45.236Z,6.50
2022-07-25T05:16:13.677Z,6.90
2022-07-25T05:18:43.543Z,6.72
2022-07-25T05:21:12.533Z,6.43
2022-07-25T05:23:41.060Z,7.05
2022-07-25T05:26:09.441Z,6.50
2022-07-25T05:28:37.841Z,6.00
2022-07-25T05:31:06.357Z,6.55
2022-07-25T05:33:35.845Z,6.38
2022-07-25T05:36:06.046Z,6.53
2022-07-25T05:38:34.593Z,6.90
2022-07-25T05:41:02.973Z,6.90
2022-07-25T05:43:31.400Z,6.60
2022-07-25T05:46:02.225Z,6.85
2022-07-25T05:48:30.759Z,7.15
2022-07-25T05:51:00.101Z,6.65
2022-07-25T05:53:29.886Z,6.82
2022-07-25T05:55:58.299Z,6.35
2022-07-25T05:58:29.938Z,6.78
2022-07-25T06:00:58.660Z,6.07
2022-07-25T06:03:27.316Z,6.43
2022-07-25T06:05:56.855Z,6.43
2022-07-25T06:08:25.297Z,6.50
2022-07-25T06:10:55.248Z,6.63
2022-07-25T06:13:24.120Z,6.40
2022-07-25T06:15:53.304Z,6.57
2022-07-25T06:18:21.742Z,6.53
2022-07-25T06:20:50.128Z,6.57
2022-07-25T06:23:19.031Z,6.28
2022-07-25T06:25:50.767Z,6.68
2022-07-25T06:28:20.598Z,6.95
2022-07-25T06:30:49.267Z,6.88
2022-07-25T06:33:17.683Z,6.85
2022-07-25T06:35:46.093Z,7.10
2022-07-25T06:38:14.513Z,6.60
2022-07-25T06:40:42.925Z,6.63
2022-07-25T06:43:11.313Z,6.35
2022-07-25T06:45:47.074Z,6.63
2022-07-25T06:48:15.487Z,6.53
2022-07-25T06:50:43.916Z,6.90
2022-07-25T06:53:12.310Z,6.60
2022-07-25T06:55:40.700Z,7.18
2022-07-25T06:58:09.096Z,7.07
2022-07-25T07:00:37.528Z,6.53
2022-07-25T07:03:07.425Z,6.60
2022-07-25T07:05:37.482Z,7.05
2022-07-25T07:08:06.146Z,7.35
2022-07-25T07:10:34.515Z,6.90
2022-07-25T07:13:07.699Z,6.57
2022-07-25T07:15:36.333Z,6.80
2022-07-25T07:18:07.832Z,6.97
2022-07-25T07:20:36.201Z,6.53
2022-07-25T07:23:04.698Z,7.05
2022-07-25T07:25:34.262Z,6.60
2022-07-25T07:28:02.656Z,6.78
2022-07-25T07:30:58.314Z,6.68
2022-07-25T07:33:20.917Z,7.00
2022-07-25T07:35:49.298Z,6.45
2022-07-25T07:38:18.550Z,7.63
2022-07-25T07:40:46.957Z,7.50
2022-07-25T07:43:15.337Z,7.43
2022-07-25T07:45:44.475Z,7.15
2022-07-25T07:48:12.855Z,7.45
2022-07-25T07:50:42.584Z,7.10
2022-07-25T07:53:10.971Z,7.63
2022-07-25T07:55:44.188Z,7.80
2022-07-25T07:58:13.115Z,7.60
2022-07-25T08:00:41.478Z,7.68
2022-07-25T08:03:10.242Z,7.13
2022-07-25T08:05:39.554Z,6.63
2022-07-25T08:08:09.922Z,6.75
2022-07-25T08:10:41.359Z,6.80
2022-07-25T08:13:14.549Z,6.82
2022-07-25T08:15:43.669Z,6.55
2022-07-25T08:18:17.176Z,6.13
2022-07-25T08:20:46.472Z,5.75
2022-07-25T08:23:16.418Z,5.95
2022-07-25T08:25:45.171Z,7.07
2022-07-25T08:28:13.618Z,6.25
2022-07-25T08:30:42.923Z,6.53
2022-07-25T08:33:13.411Z,7.18
2022-07-25T08:35:42.817Z,6.88
2022-07-25T08:38:12.108Z,6.60
2022-07-25T08:40:41.908Z,7.13
2022-07-25T08:43:13.510Z,6.38
2022-07-25T08:45:45.899Z,5.90
2022-07-25T08:48:14.742Z,6.80
2022-07-25T08:50:43.272Z,6.80
2022-07-25T08:53:32.117Z,6.57
2022-07-25T08:56:04.179Z,6.68
2022-07-25T08:58:36.813Z,6.30
2022-07-25T09:01:05.182Z,6.55
2022-07-25T09:03:33.666Z,6.63
2022-07-25T09:06:02.043Z,6.22
2022-07-25T09:08:30.470Z,6.65
2022-07-25T09:10:58.816Z,7.38
2022-07-25T09:13:30.616Z,6.97
2022-07-25T09:16:00.516Z,6.57
2022-07-25T09:18:29.242Z,6.93
2022-07-25T09:20:59.922Z,7.15
2022-07-25T09:23:32.150Z,7.20
2022-07-25T09:26:03.954Z,6.80
2022-07-25T09:28:34.012Z,6.53
2022-07-25T09:31:03.395Z,6.75
2022-07-25T09:33:31.801Z,7.38
2022-07-25T09:36:00.186Z,7.78
2022-07-25T09:38:28.574Z,7.15
2022-07-25T09:40:57.738Z,7.20
2022-07-25T09:43:37.178Z,7.10
2022-07-25T09:46:07.819Z,7.60
2022-07-25T09:48:36.530Z,6.97
2022-07-25T09:53:44.034Z,6.60
2022-07-25T09:56:12.410Z,6.47
2022-07-25T09:58:40.783Z,5.55
2022-07-25T10:01:09.231Z,6.30
2022-07-25T10:03:44.241Z,5.60
2022-07-25T10:06:16.687Z,5.40
2022-07-25T10:08:46.477Z,5.05
2022-07-25T10:11:21.996Z,5.30
2022-07-25T10:13:50.836Z,4.53
2022-07-25T10:16:20.163Z,5.32
2022-07-25T10:18:52.520Z,4.40
2022-07-25T10:21:29.113Z,4.55
2022-07-25T10:24:04.245Z,4.70
2022-07-25T10:26:33.515Z,4.43
2022-07-25T10:29:02.619Z,4.47
2022-07-25T10:31:36.619Z,4.22
2022-07-25T10:34:06.422Z,4.32
2022-07-25T10:36:45.455Z,4.45
2022-07-25T10:39:16.182Z,4.55
2022-07-25T10:41:46.029Z,4.30
2022-07-25T10:44:15.693Z,4.68
2022-07-25T10:46:45.101Z,4.63
2022-07-25T10:49:19.296Z,4.85
2022-07-25T10:51:54.273Z,4.68
2022-07-25T10:54:24.499Z,4.78
2022-07-25T10:56:56.324Z,4.72
2022-07-25T10:59:28.948Z,4.05
2022-07-25T11:01:57.397Z,3.78
2022-07-25T11:04:25.845Z,3.75
2022-07-25T11:06:54.361Z,4.35
2022-07-25T11:09:27.368Z,4.00
2022-07-25T11:11:57.251Z,4.45
2022-07-25T11:14:26.337Z,4.20
2022-07-25T11:16:56.109Z,3.75
2022-07-25T11:19:25.351Z,3.90
2022-07-25T11:21:55.765Z,3.78
2022-07-25T11:24:35.848Z,3.80
2022-07-25T11:27:07.291Z,4.05
2022-07-25T11:29:40.066Z,3.70
2022-07-25T11:32:09.740Z,4.30
2022-07-25T11:34:38.919Z,3.70
2022-07-25T11:37:10.006Z,3.75
2022-07-25T11:39:42.147Z,3.65
2022-07-25T11:42:11.533Z,3.85
2022-07-25T11:44:47.142Z,4.00
2022-07-25T11:47:24.546Z,3.47
2022-07-25T11:49:53.599Z,3.90
2022-07-25T11:52:23.073Z,3.67
2022-07-25T11:54:56.380Z,4.00
2022-07-25T11:57:25.318Z,4.00
2022-07-25T11:59:53.714Z,3.50
2022-07-25T12:02:25.766Z,3.90
2022-07-25T12:04:58.061Z,3.85
2022-07-25T12:07:37.001Z,3.55
2022-07-25T12:10:07.376Z,3.70
2022-07-25T12:12:45.526Z,3.70
2022-07-25T12:15:15.041Z,3.75
2022-07-25T12:17:44.304Z,3.60
2022-07-25T12:20:15.533Z,3.50
2022-07-25T12:22:44.080Z,3.67
2022-07-25T12:25:14.141Z,3.65
2022-07-25T12:27:42.652Z,3.58
2022-07-25T12:30:11.832Z,3.80
2022-07-25T12:32:40.827Z,3.92
2022-07-25T12:35:10.105Z,3.90
2022-07-25T12:37:38.955Z,4.07
2022-07-25T12:40:07.974Z,4.10
2022-07-25T12:42:37.721Z,4.25
2022-07-25T12:45:07.812Z,4.05
2022-07-25T12:47:36.607Z,4.70
2022-07-25T12:50:06.347Z,4.68
2022-07-25T12:52:34.801Z,4.30
2022-07-25T12:55:03.498Z,4.50
2022-07-25T12:57:32.212Z,4.65
2022-07-25T13:00:02.008Z,4.00
2022-07-25T13:02:30.483Z,3.88
2022-07-25T13:04:58.878Z,3.92
2022-07-25T13:07:27.483Z,3.60
2022-07-25T13:09:55.833Z,3.67
2022-07-25T13:12:24.263Z,2.85
2022-07-25T13:14:52.934Z,3.58
2022-07-25T13:17:27.290Z,4.10
2022-07-25T13:19:56.539Z,3.25
2022-07-25T13:22:25.229Z,3.25
2022-07-25T13:24:53.726Z,3.05
2022-07-25T13:27:22.653Z,3.17
2022-07-25T13:29:54.128Z,3.60
2022-07-25T13:32:24.444Z,3.28
2022-07-25T13:34:52.779Z,3.58
2022-07-25T13:37:21.190Z,3.83
2022-07-25T13:42:10.446Z,3.72
2022-07-25T13:44:38.824Z,3.10
2022-07-25T13:47:07.345Z,3.28
2022-07-25T13:49:36.910Z,2.78
2022-07-25T13:52:05.316Z,3.05
2022-07-25T13:54:33.849Z,2.88
2022-07-25T13:57:03.229Z,3.25
2022-07-25T13:59:33.167Z,2.90
2022-07-25T14:02:01.595Z,3.05
2022-07-25T14:04:30.308Z,2.90
2022-07-25T14:06:58.839Z,2.65
2022-07-25T14:09:27.441Z,2.80
2022-07-25T14:11:55.805Z,2.85
2022-07-25T14:14:24.173Z,2.70
2022-07-25T14:16:54.117Z,2.75
2022-07-25T14:19:24.093Z,2.97
2022-07-25T14:21:52.478Z,3.13
2022-07-25T14:24:21.021Z,2.60
2022-07-25T14:26:49.692Z,3.30
2022-07-25T14:29:18.247Z,3.03
2022-07-25T14:34:20.421Z,2.75
2022-07-25T14:36:49.109Z,2.55
2022-07-25T14:39:17.663Z,2.80
2022-07-25T14:41:46.042Z,3.20
2022-07-25T14:44:14.378Z,3.00
2022-07-25T14:46:43.991Z,2.85
2022-07-25T14:49:14.206Z,2.88
2022-07-25T14:54:22.620Z,3.10
2022-07-25T14:56:51.010Z,3.17
2022-07-25T14:59:19.378Z,3.25
2022-07-25T15:01:47.774Z,3.28
2022-07-25T15:04:19.738Z,3.80
2022-07-25T15:06:48.198Z,3.10
2022-07-25T15:09:16.650Z,3.17
2022-07-25T15:11:46.455Z,2.80
2022-07-25T15:14:15.202Z,3.40
2022-07-25T15:16:44.266Z,3.20
2022-07-25T15:19:17.361Z,3.28
2022-07-25T15:21:46.299Z,3.28
2022-07-25T15:24:14.719Z,2.97
2022-07-25T15:26:43.140Z,3.13
2022-07-25T15:29:15.199Z,2.83
2022-07-25T15:31:43.625Z,2.72
2022-07-25T15:34:12.024Z,3.10
2022-07-25T15:36:40.388Z,2.83
2022-07-25T15:39:09.338Z,2.67
2022-07-25T15:41:37.985Z,2.70
2022-07-25T15:44:07.580Z,2.40
2022-07-25T15:46:37.363Z,2.72
2022-07-25T15:49:06.082Z,2.70
2022-07-25T15:51:34.724Z,2.80
2022-07-25T15:54:03.122Z,2.70
2022-07-25T15:56:31.485Z,2.30
2022-07-25T15:58:59.833Z,2.40
2022-07-25T16:01:28.279Z,2.58
2022-07-25T16:03:59.913Z,2.78
2022-07-25T16:06:28.464Z,2.60
2022-07-25T16:08:56.994Z,2.67
2022-07-25T16:11:25.431Z,2.60
2022-07-25T16:13:53.887Z,2.55
2022-07-25T16:16:22.897Z,2.83
2022-07-25T16:18:51.389Z,2.58
2022-07-25T16:21:21.231Z,2.80
2022-07-25T16:23:49.621Z,2.30
2022-07-25T16:26:18.009Z,2.20
2022-07-25T16:28:48.216Z,2.35
2022-07-25T16:31:16.758Z,2.38
2022-07-25T16:33:45.179Z,2.30
2022-07-25T16:36:13.565Z,2.20
2022-07-25T16:38:45.127Z,2.78
2022-07-25T16:41:13.534Z,2.10
2022-07-25T16:43:41.886Z,2.65
2022-07-25T16:46:10.634Z,2.50
2022-07-25T16:48:39.420Z,2.53
2022-07-25T16:51:08.019Z,2.35
2022-07-25T16:53:36.890Z,2.42
2022-07-25T16:56:07.311Z,2.25
2022-07-25T16:58:36.044Z,2.10
2022-07-25T17:01:04.445Z,2.42
2022-07-25T17:03:32.873Z,2.28
2022-07-25T17:06:01.927Z,2.22
2022-07-25T17:08:31.927Z,2.20
2022-07-25T17:11:00.280Z,2.03
2022-07-25T17:13:30.031Z,2.88
2022-07-25T17:15:58.559Z,2.22
2022-07-25T17:18:27.343Z,2.55
2022-07-25T17:20:55.740Z,2.35
2022-07-25T17:23:24.475Z,2.50
2022-07-25T17:25:53.544Z,2.15
2022-07-25T17:28:22.749Z,2.20
2022-07-25T17:30:52.556Z,2.58
2022-07-25T17:33:20.965Z,2.55
2022-07-25T17:35:49.371Z,1.90
2022-07-25T17:38:20.092Z,2.38
2022-07-25T17:40:52.210Z,2.58
2022-07-25T17:43:20.571Z,2.20
2022-07-25T17:45:49.027Z,2.13
2022-07-25T17:48:18.765Z,1.88
2022-07-25T17:50:47.114Z,2.38
2022-07-25T17:53:18.007Z,2.33
2022-07-25T17:55:46.784Z,1.80
2022-07-25T17:58:15.507Z,2.08
2022-07-25T18:00:43.868Z,1.58
2022-07-25T18:03:12.322Z,1.48
2022-07-25T18:05:42.112Z,1.95
2022-07-25T18:08:11.472Z,1.77
2022-07-25T18:10:39.837Z,1.45
2022-07-25T18:13:08.251Z,1.60
2022-07-25T18:15:36.804Z,1.58
2022-07-25T18:18:07.408Z,1.55
2022-07-25T18:20:36.997Z,1.58
2022-07-25T18:23:06.719Z,1.52
2022-07-25T18:25:35.483Z,1.35
2022-07-25T18:28:03.992Z,1.30
2022-07-25T18:30:32.438Z,1.33
2022-07-25T18:33:00.801Z,1.45
2022-07-25T18:35:29.201Z,1.50
2022-07-25T18:37:57.620Z,1.60
2022-07-25T18:40:27.890Z,1.67
2022-07-25T18:42:56.280Z,1.60
2022-07-25T18:45:25.111Z,1.50
2022-07-25T18:47:55.138Z,1.27
2022-07-25T18:50:23.527Z,1.70
2022-07-25T18:52:51.892Z,1.52
2022-07-25T18:55:20.235Z,1.38
2022-07-25T18:57:50.072Z,1.75
2022-07-25T19:00:18.704Z,1.50
2022-07-25T19:02:47.092Z,1.30
2022-07-25T19:05:15.545Z,1.38
2022-07-25T19:07:43.952Z,1.63
2022-07-25T19:10:12.520Z,1.40
2022-07-25T19:12:40.909Z,1.38
2022-07-25T19:15:11.051Z,1.40
2022-07-25T19:17:39.509Z,1.40
2022-07-25T19:20:08.560Z,1.50
2022-07-25T19:22:36.941Z,1.60
2022-07-25T19:25:08.354Z,1.25
2022-07-25T19:27:36.854Z,1.70
2022-07-25T19:30:06.979Z,1.20
2022-07-25T19:32:36.829Z,1.48
2022-07-25T19:35:05.455Z,1.40
2022-07-25T19:37:34.451Z,1.33
2022-07-25T19:40:03.158Z,1.60
2022-07-25T19:42:31.901Z,1.25
2022-07-25T19:45:00.341Z,1.10
2022-07-25T19:47:28.917Z,1.05
2022-07-25T19:49:58.668Z,1.40
2022-07-25T19:52:27.066Z,1.45
2022-07-25T19:54:55.594Z,2.70
2022-07-25T19:57:23.997Z,1.50
2022-07-25T19:59:52.341Z,1.45
2022-07-25T20:02:20.801Z,1.25
2022-07-25T20:04:49.227Z,1.55
2022-07-25T20:07:18.966Z,1.52
2022-07-25T20:09:47.312Z,1.10
2022-07-25T20:12:15.748Z,1.30
2022-07-25T20:14:44.123Z,1.48
2022-07-25T20:17:12.692Z,1.10
2022-07-25T20:19:41.172Z,1.50
2022-07-25T20:22:09.544Z,1.23
2022-07-25T20:24:39.274Z,1.60
2022-07-25T20:27:07.948Z,1.05
2022-07-25T20:29:36.485Z,1.13
2022-07-25T20:32:06.159Z,1.27
2022-07-25T20:34:34.539Z,1.13
2022-07-25T20:37:02.898Z,1.20
2022-07-25T20:39:31.868Z,1.48
2022-07-25T20:42:01.731Z,1.38
2022-07-25T20:44:30.066Z,1.42
2022-07-25T20:46:58.462Z,1.27
2022-07-25T20:49:26.856Z,1.17
2022-07-25T20:51:55.313Z,1.30
2022-07-25T20:54:23.713Z,1.40
2022-07-25T20:56:53.057Z,1.33
2022-07-25T20:59:22.762Z,1.20
2022-07-25T21:01:51.252Z,1.40
2022-07-25T21:04:19.656Z,1.23
2022-07-25T21:06:48.028Z,1.30
2022-07-25T21:09:16.661Z,1.25
2022-07-25T21:11:45.094Z,1.30
2022-07-25T21:14:13.467Z,1.17
2022-07-25T21:16:46.161Z,0.90
2022-07-25T21:19:14.621Z,1.63
2022-07-25T21:21:42.988Z,1.52
2022-07-25T21:24:11.945Z,1.30
2022-07-25T21:26:40.505Z,1.30
2022-07-25T21:29:09.645Z,1.42
2022-07-25T21:31:39.237Z,1.38
2022-07-25T21:34:09.005Z,1.30
2022-07-25T21:36:37.369Z,1.90
2022-07-25T21:39:06.046Z,1.73
2022-07-25T21:41:34.654Z,1.60
2022-07-25T21:44:03.159Z,1.40
2022-07-25T21:46:31.654Z,1.48
2022-07-25T21:49:17.712Z,1.20
2022-07-25T21:52:07.671Z,1.40
2022-07-25T21:54:37.658Z,1.17
2022-07-25T21:57:06.055Z,1.40
2022-07-25T21:59:41.411Z,1.20
2022-07-25T22:02:09.783Z,1.30
2022-07-25T22:04:38.386Z,1.58
2022-07-25T22:07:08.182Z,1.20
2022-07-25T22:09:36.578Z,1.42
2022-07-25T22:12:05.461Z,1.40
2022-07-25T22:14:33.809Z,1.30
2022-07-25T22:17:02.303Z,1.33
2022-07-25T22:19:30.676Z,1.40
2022-07-25T22:21:59.065Z,1.38
2022-07-25T22:24:28.831Z,1.20
2022-07-25T22:26:57.221Z,1.67
2022-07-25T22:29:25.562Z,1.50
2022-07-25T22:31:54.029Z,1.50
2022-07-25T22:34:23.558Z,1.38
2022-07-25T22:36:51.977Z,1.40
2022-07-25T22:39:20.600Z,1.63
2022-07-25T22:41:50.510Z,1.50
2022-07-25T22:44:18.930Z,1.63
2022-07-25T22:46:47.312Z,1.40
2022-07-25T22:49:15.782Z,1.23
2022-07-25T22:51:44.225Z,1.60
2022-07-25T22:54:12.562Z,1.52
2022-07-25T22:56:40.942Z,1.45
2022-07-25T22:59:11.007Z,1.45
2022-07-25T23:01:39.551Z,1.50
2022-07-25T23:04:08.523Z,1.40
2022-07-25T23:06:36.943Z,1.88
2022-07-25T23:09:05.662Z,1.45
2022-07-25T23:11:34.208Z,1.35
2022-07-25T23:14:02.575Z,1.38
2022-07-25T23:16:32.424Z,1.67
2022-07-25T23:19:00.833Z,1.60
2022-07-25T23:21:29.208Z,1.70
2022-07-25T23:23:59.898Z,1.73
2022-07-25T23:26:28.525Z,1.70
2022-07-25T23:28:57.066Z,1.65
2022-07-25T23:31:25.496Z,1.20
2022-07-25T23:33:55.350Z,1.60
2022-07-25T23:36:23.846Z,1.73
2022-07-25T23:38:52.195Z,1.75
2022-07-25T23:41:20.593Z,1.70
2022-07-25T23:43:57.338Z,1.55
2022-07-25T23:46:29.333Z,1.75
2022-07-25T23:49:01.172Z,1.67
2022-07-25T23:51:29.621Z,1.80
2022-07-25T23:53:57.982Z,2.00
2022-07-25T23:56:26.402Z,1.92
2022-07-25T23:58:54.887Z,1.75
